sensor_id;sensor_type;location;lat;lon;timestamp;P1;durP1;ratioP1;P2;durP2;ratioP2
7515;SDS011;3799;47.184;8.538;2023-03-12T00:01:28;10.35;;;5.35;;
7515;SDS011;3799;47.184;8.538;2023-03-12T00:04:00;8.30;;;4.57;;
7515;SDS011;3799;47.184;8.538;2023-03-12T00:06:28;9.55;;;5.22;;
7515;SDS011;3799;47.184;8.538;2023-03-12T00:08:56;9.55;;;4.60;;
7515;SDS011;3799;47.184;8.538;2023-03-12T00:11:29;8.23;;;4.22;;
7515;SDS011;3799;47.184;8.538;2023-03-12T00:14:01;8.77;;;4.68;;
7515;SDS011;3799;47.184;8.538;2023-03-12T00:16:28;9.50;;;4.95;;
7515;SDS011;3799;47.184;8.538;2023-03-12T00:18:56;11.35;;;5.03;;
7515;SDS011;3799;47.184;8.538;2023-03-12T00:21:26;8.68;;;4.45;;
7515;SDS011;3799;47.184;8.538;2023-03-12T00:23:56;11.30;;;4.32;;
7515;SDS011;3799;47.184;8.538;2023-03-12T00:28:56;7.85;;;4.07;;
7515;SDS011;3799;47.184;8.538;2023-03-12T00:31:27;6.90;;;3.78;;
7515;SDS011;3799;47.184;8.538;2023-03-12T00:33:58;7.35;;;3.55;;
7515;SDS011;3799;47.184;8.538;2023-03-12T00:36:31;8.27;;;4.18;;
7515;SDS011;3799;47.184;8.538;2023-03-12T00:38:59;8.18;;;4.18;;
7515;SDS011;3799;47.184;8.538;2023-03-12T00:41:27;7.65;;;4.05;;
7515;SDS011;3799;47.184;8.538;2023-03-12T00:44:05;7.95;;;3.83;;
7515;SDS011;3799;47.184;8.538;2023-03-12T00:46:35;7.18;;;3.38;;
7515;SDS011;3799;47.184;8.538;2023-03-12T00:49:07;7.22;;;3.83;;
7515;SDS011;3799;47.184;8.538;2023-03-12T00:51:35;10.00;;;5.00;;
7515;SDS011;3799;47.184;8.538;2023-03-12T00:54:02;11.38;;;5.20;;
7515;SDS011;3799;47.184;8.538;2023-03-12T00:56:34;8.75;;;4.60;;
7515;SDS011;3799;47.184;8.538;2023-03-12T00:59:08;9.73;;;4.35;;
7515;SDS011;3799;47.184;8.538;2023-03-12T01:01:40;9.23;;;4.32;;
7515;SDS011;3799;47.184;8.538;2023-03-12T01:04:09;10.90;;;5.25;;
7515;SDS011;3799;47.184;8.538;2023-03-12T01:06:43;9.27;;;4.20;;
7515;SDS011;3799;47.184;8.538;2023-03-12T01:09:10;10.23;;;5.03;;
7515;SDS011;3799;47.184;8.538;2023-03-12T01:11:41;10.70;;;5.35;;
7515;SDS011;3799;47.184;8.538;2023-03-12T01:14:12;10.68;;;5.78;;
7515;SDS011;3799;47.184;8.538;2023-03-12T01:16:41;10.50;;;4.93;;
7515;SDS011;3799;47.184;8.538;2023-03-12T01:19:08;13.77;;;4.63;;
7515;SDS011;3799;47.184;8.538;2023-03-12T01:21:57;9.13;;;4.28;;
7515;SDS011;3799;47.184;8.538;2023-03-12T01:24:25;8.13;;;4.10;;
7515;SDS011;3799;47.184;8.538;2023-03-12T01:26:56;9.57;;;4.22;;
7515;SDS011;3799;47.184;8.538;2023-03-12T01:29:27;11.88;;;4.65;;
7515;SDS011;3799;47.184;8.538;2023-03-12T01:32:06;11.05;;;4.43;;
7515;SDS011;3799;47.184;8.538;2023-03-12T01:34:34;12.27;;;5.13;;
7515;SDS011;3799;47.184;8.538;2023-03-12T01:37:07;10.07;;;4.50;;
7515;SDS011;3799;47.184;8.538;2023-03-12T01:39:42;11.48;;;5.05;;
7515;SDS011;3799;47.184;8.538;2023-03-12T01:42:09;13.52;;;5.50;;
7515;SDS011;3799;47.184;8.538;2023-03-12T01:44:56;11.15;;;5.10;;
7515;SDS011;3799;47.184;8.538;2023-03-12T01:47:25;12.10;;;5.95;;
7515;SDS011;3799;47.184;8.538;2023-03-12T01:49:54;9.75;;;4.32;;
7515;SDS011;3799;47.184;8.538;2023-03-12T01:52:26;10.00;;;4.28;;
7515;SDS011;3799;47.184;8.538;2023-03-12T01:55:15;9.43;;;4.60;;
7515;SDS011;3799;47.184;8.538;2023-03-12T02:00:40;9.93;;;4.60;;
7515;SDS011;3799;47.184;8.538;2023-03-12T02:03:11;11.73;;;5.28;;
7515;SDS011;3799;47.184;8.538;2023-03-12T02:08:23;11.20;;;4.85;;
7515;SDS011;3799;47.184;8.538;2023-03-12T02:10:56;11.48;;;4.65;;
7515;SDS011;3799;47.184;8.538;2023-03-12T02:13:23;12.63;;;5.40;;
7515;SDS011;3799;47.184;8.538;2023-03-12T02:16:05;12.75;;;5.38;;
7515;SDS011;3799;47.184;8.538;2023-03-12T02:18:34;14.88;;;6.53;;
7515;SDS011;3799;47.184;8.538;2023-03-12T02:21:10;11.85;;;5.55;;
7515;SDS011;3799;47.184;8.538;2023-03-12T02:24:01;12.70;;;5.75;;
7515;SDS011;3799;47.184;8.538;2023-03-12T02:26:37;13.05;;;5.50;;
7515;SDS011;3799;47.184;8.538;2023-03-12T02:31:37;12.05;;;5.60;;
7515;SDS011;3799;47.184;8.538;2023-03-12T02:34:10;13.82;;;6.47;;
7515;SDS011;3799;47.184;8.538;2023-03-12T02:36:46;14.30;;;5.97;;
7515;SDS011;3799;47.184;8.538;2023-03-12T02:39:23;12.63;;;5.35;;
7515;SDS011;3799;47.184;8.538;2023-03-12T02:41:51;13.45;;;5.97;;
7515;SDS011;3799;47.184;8.538;2023-03-12T02:44:23;13.15;;;6.28;;
7515;SDS011;3799;47.184;8.538;2023-03-12T02:47:02;12.38;;;4.95;;
7515;SDS011;3799;47.184;8.538;2023-03-12T02:49:34;12.80;;;5.53;;
7515;SDS011;3799;47.184;8.538;2023-03-12T02:52:02;11.93;;;5.78;;
7515;SDS011;3799;47.184;8.538;2023-03-12T02:54:30;10.55;;;4.85;;
7515;SDS011;3799;47.184;8.538;2023-03-12T02:57:03;11.02;;;5.38;;
7515;SDS011;3799;47.184;8.538;2023-03-12T02:59:34;11.45;;;4.97;;
7515;SDS011;3799;47.184;8.538;2023-03-12T03:02:02;11.88;;;5.18;;
7515;SDS011;3799;47.184;8.538;2023-03-12T03:04:38;12.57;;;5.88;;
7515;SDS011;3799;47.184;8.538;2023-03-12T03:07:16;11.35;;;5.00;;
7515;SDS011;3799;47.184;8.538;2023-03-12T03:09:44;12.95;;;5.90;;
7515;SDS011;3799;47.184;8.538;2023-03-12T03:12:19;14.15;;;5.28;;
7515;SDS011;3799;47.184;8.538;2023-03-12T03:14:54;9.27;;;4.65;;
7515;SDS011;3799;47.184;8.538;2023-03-12T03:17:26;11.73;;;4.95;;
7515;SDS011;3799;47.184;8.538;2023-03-12T03:19:55;11.20;;;4.55;;
7515;SDS011;3799;47.184;8.538;2023-03-12T03:22:22;10.77;;;4.78;;
7515;SDS011;3799;47.184;8.538;2023-03-12T03:24:55;8.68;;;4.55;;
7515;SDS011;3799;47.184;8.538;2023-03-12T03:27:24;9.57;;;4.05;;
7515;SDS011;3799;47.184;8.538;2023-03-12T03:29:57;10.30;;;4.35;;
7515;SDS011;3799;47.184;8.538;2023-03-12T03:32:27;9.15;;;4.82;;
7515;SDS011;3799;47.184;8.538;2023-03-12T03:34:58;10.93;;;5.10;;
7515;SDS011;3799;47.184;8.538;2023-03-12T03:37:42;9.10;;;4.13;;
7515;SDS011;3799;47.184;8.538;2023-03-12T03:40:12;7.57;;;3.72;;
7515;SDS011;3799;47.184;8.538;2023-03-12T03:42:47;10.10;;;3.88;;
7515;SDS011;3799;47.184;8.538;2023-03-12T03:45:26;10.00;;;4.15;;
7515;SDS011;3799;47.184;8.538;2023-03-12T03:47:54;9.50;;;3.72;;
7515;SDS011;3799;47.184;8.538;2023-03-12T03:50:30;7.82;;;4.20;;
7515;SDS011;3799;47.184;8.538;2023-03-12T03:53:09;9.82;;;4.50;;
7515;SDS011;3799;47.184;8.538;2023-03-12T03:55:41;9.77;;;3.70;;
7515;SDS011;3799;47.184;8.538;2023-03-12T03:58:09;8.85;;;4.22;;
7515;SDS011;3799;47.184;8.538;2023-03-12T04:00:39;7.75;;;3.55;;
7515;SDS011;3799;47.184;8.538;2023-03-12T04:03:06;8.60;;;3.90;;
7515;SDS011;3799;47.184;8.538;2023-03-12T04:05:34;7.57;;;3.45;;
7515;SDS011;3799;47.184;8.538;2023-03-12T04:08:02;6.30;;;3.20;;
7515;SDS011;3799;47.184;8.538;2023-03-12T04:10:29;12.23;;;4.15;;
7515;SDS011;3799;47.184;8.538;2023-03-12T04:12:57;8.60;;;3.50;;
7515;SDS011;3799;47.184;8.538;2023-03-12T04:15:25;6.55;;;3.42;;
7515;SDS011;3799;47.184;8.538;2023-03-12T04:17:53;7.43;;;3.65;;
7515;SDS011;3799;47.184;8.538;2023-03-12T04:20:29;7.18;;;3.40;;
7515;SDS011;3799;47.184;8.538;2023-03-12T04:22:59;7.30;;;3.33;;
7515;SDS011;3799;47.184;8.538;2023-03-12T04:25:47;6.70;;;3.78;;
7515;SDS011;3799;47.184;8.538;2023-03-12T04:28:15;6.35;;;3.35;;
7515;SDS011;3799;47.184;8.538;2023-03-12T04:30:42;8.05;;;4.00;;
7515;SDS011;3799;47.184;8.538;2023-03-12T04:33:09;8.02;;;4.18;;
7515;SDS011;3799;47.184;8.538;2023-03-12T04:35:45;8.77;;;4.00;;
7515;SDS011;3799;47.184;8.538;2023-03-12T04:38:20;6.28;;;3.40;;
7515;SDS011;3799;47.184;8.538;2023-03-12T04:40:59;6.90;;;3.35;;
7515;SDS011;3799;47.184;8.538;2023-03-12T04:43:39;7.47;;;3.50;;
7515;SDS011;3799;47.184;8.538;2023-03-12T04:46:09;6.68;;;3.20;;
7515;SDS011;3799;47.184;8.538;2023-03-12T04:48:37;5.70;;;2.90;;
7515;SDS011;3799;47.184;8.538;2023-03-12T04:51:05;6.32;;;3.35;;
7515;SDS011;3799;47.184;8.538;2023-03-12T04:53:32;7.15;;;3.17;;
7515;SDS011;3799;47.184;8.538;2023-03-12T04:56:00;5.70;;;3.20;;
7515;SDS011;3799;47.184;8.538;2023-03-12T05:00:58;6.15;;;2.95;;
7515;SDS011;3799;47.184;8.538;2023-03-12T05:03:26;5.85;;;2.75;;
7515;SDS011;3799;47.184;8.538;2023-03-12T05:05:56;7.05;;;2.85;;
7515;SDS011;3799;47.184;8.538;2023-03-12T05:08:23;6.00;;;3.00;;
7515;SDS011;3799;47.184;8.538;2023-03-12T05:10:51;5.45;;;2.72;;
7515;SDS011;3799;47.184;8.538;2023-03-12T05:13:19;6.65;;;3.03;;
7515;SDS011;3799;47.184;8.538;2023-03-12T05:15:54;7.25;;;2.85;;
7515;SDS011;3799;47.184;8.538;2023-03-12T05:18:22;5.95;;;3.20;;
7515;SDS011;3799;47.184;8.538;2023-03-12T05:23:27;7.53;;;3.33;;
7515;SDS011;3799;47.184;8.538;2023-03-12T05:25:56;7.30;;;3.17;;
7515;SDS011;3799;47.184;8.538;2023-03-12T05:28:24;7.18;;;3.70;;
7515;SDS011;3799;47.184;8.538;2023-03-12T05:30:55;6.40;;;2.53;;
7515;SDS011;3799;47.184;8.538;2023-03-12T05:33:25;7.63;;;3.22;;
7515;SDS011;3799;47.184;8.538;2023-03-12T05:35:53;7.07;;;3.38;;
7515;SDS011;3799;47.184;8.538;2023-03-12T05:38:21;6.93;;;3.47;;
7515;SDS011;3799;47.184;8.538;2023-03-12T05:40:55;7.25;;;4.18;;
7515;SDS011;3799;47.184;8.538;2023-03-12T05:43:25;6.72;;;3.35;;
7515;SDS011;3799;47.184;8.538;2023-03-12T05:45:52;8.10;;;3.70;;
7515;SDS011;3799;47.184;8.538;2023-03-12T05:48:24;7.65;;;3.53;;
7515;SDS011;3799;47.184;8.538;2023-03-12T05:50:53;5.43;;;3.10;;
7515;SDS011;3799;47.184;8.538;2023-03-12T05:53:20;7.00;;;3.00;;
7515;SDS011;3799;47.184;8.538;2023-03-12T05:55:48;6.88;;;3.25;;
7515;SDS011;3799;47.184;8.538;2023-03-12T05:58:17;7.25;;;3.30;;
7515;SDS011;3799;47.184;8.538;2023-03-12T06:03:50;6.53;;;3.30;;
7515;SDS011;3799;47.184;8.538;2023-03-12T06:06:30;8.07;;;3.60;;
7515;SDS011;3799;47.184;8.538;2023-03-12T06:09:03;6.93;;;3.40;;
7515;SDS011;3799;47.184;8.538;2023-03-12T06:11:34;6.25;;;2.50;;
7515;SDS011;3799;47.184;8.538;2023-03-12T06:14:06;6.80;;;2.80;;
7515;SDS011;3799;47.184;8.538;2023-03-12T06:16:38;9.00;;;2.78;;
7515;SDS011;3799;47.184;8.538;2023-03-12T06:19:17;6.53;;;3.33;;
7515;SDS011;3799;47.184;8.538;2023-03-12T06:21:48;8.38;;;3.55;;
7515;SDS011;3799;47.184;8.538;2023-03-12T06:24:23;8.88;;;4.20;;
7515;SDS011;3799;47.184;8.538;2023-03-12T06:26:52;8.15;;;3.85;;
7515;SDS011;3799;47.184;8.538;2023-03-12T06:29:22;7.57;;;4.05;;
7515;SDS011;3799;47.184;8.538;2023-03-12T06:31:56;8.10;;;4.15;;
7515;SDS011;3799;47.184;8.538;2023-03-12T06:34:26;6.03;;;3.30;;
7515;SDS011;3799;47.184;8.538;2023-03-12T06:36:53;6.57;;;2.72;;
7515;SDS011;3799;47.184;8.538;2023-03-12T06:39:20;5.03;;;2.50;;
7515;SDS011;3799;47.184;8.538;2023-03-12T06:41:50;5.28;;;1.90;;
7515;SDS011;3799;47.184;8.538;2023-03-12T06:44:30;6.03;;;2.28;;
7515;SDS011;3799;47.184;8.538;2023-03-12T06:47:07;6.05;;;2.55;;
7515;SDS011;3799;47.184;8.538;2023-03-12T06:49:40;5.40;;;2.75;;
7515;SDS011;3799;47.184;8.538;2023-03-12T06:52:15;6.10;;;2.75;;
7515;SDS011;3799;47.184;8.538;2023-03-12T06:54:49;6.18;;;2.65;;
7515;SDS011;3799;47.184;8.538;2023-03-12T06:57:20;5.43;;;3.03;;
7515;SDS011;3799;47.184;8.538;2023-03-12T06:59:51;7.70;;;3.35;;
7515;SDS011;3799;47.184;8.538;2023-03-12T07:04:46;6.22;;;3.00;;
7515;SDS011;3799;47.184;8.538;2023-03-12T07:07:14;7.10;;;3.00;;
7515;SDS011;3799;47.184;8.538;2023-03-12T07:09:42;6.47;;;3.10;;
7515;SDS011;3799;47.184;8.538;2023-03-12T07:12:13;7.97;;;3.35;;
7515;SDS011;3799;47.184;8.538;2023-03-12T07:14:46;7.97;;;3.65;;
7515;SDS011;3799;47.184;8.538;2023-03-12T07:17:21;7.00;;;3.75;;
7515;SDS011;3799;47.184;8.538;2023-03-12T07:19:50;7.82;;;3.95;;
7515;SDS011;3799;47.184;8.538;2023-03-12T07:22:21;6.50;;;3.42;;
7515;SDS011;3799;47.184;8.538;2023-03-12T07:24:52;6.15;;;3.33;;
7515;SDS011;3799;47.184;8.538;2023-03-12T07:27:21;7.38;;;3.80;;
7515;SDS011;3799;47.184;8.538;2023-03-12T07:29:49;8.10;;;3.83;;
7515;SDS011;3799;47.184;8.538;2023-03-12T07:32:37;6.63;;;3.60;;
7515;SDS011;3799;47.184;8.538;2023-03-12T07:35:07;7.22;;;4.05;;
7515;SDS011;3799;47.184;8.538;2023-03-12T07:37:41;6.30;;;3.67;;
7515;SDS011;3799;47.184;8.538;2023-03-12T07:40:09;9.35;;;4.10;;
7515;SDS011;3799;47.184;8.538;2023-03-12T07:42:44;5.93;;;3.10;;
7515;SDS011;3799;47.184;8.538;2023-03-12T07:45:20;7.93;;;3.75;;
7515;SDS011;3799;47.184;8.538;2023-03-12T07:47:51;7.93;;;3.30;;
7515;SDS011;3799;47.184;8.538;2023-03-12T07:50:21;6.50;;;3.67;;
7515;SDS011;3799;47.184;8.538;2023-03-12T07:52:51;7.43;;;3.97;;
7515;SDS011;3799;47.184;8.538;2023-03-12T07:55:21;9.13;;;3.78;;
7515;SDS011;3799;47.184;8.538;2023-03-12T07:57:51;6.97;;;3.30;;
7515;SDS011;3799;47.184;8.538;2023-03-12T08:00:19;6.95;;;3.40;;
7515;SDS011;3799;47.184;8.538;2023-03-12T08:02:47;6.28;;;2.97;;
7515;SDS011;3799;47.184;8.538;2023-03-12T08:05:15;7.70;;;3.90;;
7515;SDS011;3799;47.184;8.538;2023-03-12T08:07:43;7.22;;;3.40;;
7515;SDS011;3799;47.184;8.538;2023-03-12T08:10:17;4.80;;;2.60;;
7515;SDS011;3799;47.184;8.538;2023-03-12T08:12:56;5.07;;;2.83;;
7515;SDS011;3799;47.184;8.538;2023-03-12T08:15:30;4.75;;;2.25;;
7515;SDS011;3799;47.184;8.538;2023-03-12T08:17:57;3.65;;;2.03;;
7515;SDS011;3799;47.184;8.538;2023-03-12T08:20:24;4.05;;;1.70;;
7515;SDS011;3799;47.184;8.538;2023-03-12T08:22:52;3.28;;;1.90;;
7515;SDS011;3799;47.184;8.538;2023-03-12T08:25:22;4.07;;;1.67;;
7515;SDS011;3799;47.184;8.538;2023-03-12T08:27:50;4.30;;;1.85;;
7515;SDS011;3799;47.184;8.538;2023-03-12T08:30:20;4.13;;;1.92;;
7515;SDS011;3799;47.184;8.538;2023-03-12T08:32:47;4.30;;;1.52;;
7515;SDS011;3799;47.184;8.538;2023-03-12T08:35:18;5.55;;;1.48;;
7515;SDS011;3799;47.184;8.538;2023-03-12T08:40:18;2.60;;;1.13;;
7515;SDS011;3799;47.184;8.538;2023-03-12T08:42:46;2.45;;;1.25;;
7515;SDS011;3799;47.184;8.538;2023-03-12T08:45:13;3.30;;;1.40;;
7515;SDS011;3799;47.184;8.538;2023-03-12T08:47:41;4.03;;;1.00;;
7515;SDS011;3799;47.184;8.538;2023-03-12T08:50:10;2.67;;;1.15;;
7515;SDS011;3799;47.184;8.538;2023-03-12T08:52:38;1.95;;;0.88;;
7515;SDS011;3799;47.184;8.538;2023-03-12T08:55:09;2.80;;;1.08;;
7515;SDS011;3799;47.184;8.538;2023-03-12T08:57:37;2.53;;;1.20;;
7515;SDS011;3799;47.184;8.538;2023-03-12T09:00:06;5.53;;;1.30;;
7515;SDS011;3799;47.184;8.538;2023-03-12T09:02:44;2.40;;;1.20;;
7515;SDS011;3799;47.184;8.538;2023-03-12T09:05:12;2.33;;;1.25;;
7515;SDS011;3799;47.184;8.538;2023-03-12T09:07:42;2.90;;;1.58;;
7515;SDS011;3799;47.184;8.538;2023-03-12T09:10:09;2.95;;;1.10;;
7515;SDS011;3799;47.184;8.538;2023-03-12T09:12:37;2.40;;;1.17;;
7515;SDS011;3799;47.184;8.538;2023-03-12T09:17:36;2.22;;;1.13;;
7515;SDS011;3799;47.184;8.538;2023-03-12T09:20:04;3.97;;;1.65;;
7515;SDS011;3799;47.184;8.538;2023-03-12T09:22:52;3.63;;;1.58;;
7515;SDS011;3799;47.184;8.538;2023-03-12T09:25:19;3.05;;;1.50;;
7515;SDS011;3799;47.184;8.538;2023-03-12T09:27:48;2.35;;;1.02;;
7515;SDS011;3799;47.184;8.538;2023-03-12T09:30:27;4.22;;;1.98;;
7515;SDS011;3799;47.184;8.538;2023-03-12T09:32:57;3.97;;;1.60;;
7515;SDS011;3799;47.184;8.538;2023-03-12T09:35:24;2.45;;;1.25;;
7515;SDS011;3799;47.184;8.538;2023-03-12T09:37:52;2.85;;;1.40;;
7515;SDS011;3799;47.184;8.538;2023-03-12T09:40:29;3.35;;;1.63;;
7515;SDS011;3799;47.184;8.538;2023-03-12T09:43:03;2.92;;;1.38;;
7515;SDS011;3799;47.184;8.538;2023-03-12T09:45:50;3.60;;;1.27;;
7515;SDS011;3799;47.184;8.538;2023-03-12T09:48:21;2.92;;;1.20;;
7515;SDS011;3799;47.184;8.538;2023-03-12T09:51:13;2.72;;;1.05;;
7515;SDS011;3799;47.184;8.538;2023-03-12T09:53:55;3.65;;;1.88;;
7515;SDS011;3799;47.184;8.538;2023-03-12T09:56:24;3.38;;;1.95;;
7515;SDS011;3799;47.184;8.538;2023-03-12T09:58:55;2.95;;;1.45;;
7515;SDS011;3799;47.184;8.538;2023-03-12T10:01:36;3.17;;;1.73;;
7515;SDS011;3799;47.184;8.538;2023-03-12T10:10:11;4.22;;;1.50;;
7515;SDS011;3799;47.184;8.538;2023-03-12T10:24:05;3.40;;;1.73;;
7515;SDS011;3799;47.184;8.538;2023-03-12T10:26:45;2.70;;;1.52;;
7515;SDS011;3799;47.184;8.538;2023-03-12T10:29:22;3.15;;;1.58;;
7515;SDS011;3799;47.184;8.538;2023-03-12T10:34:51;3.88;;;2.03;;
7515;SDS011;3799;47.184;8.538;2023-03-12T10:37:30;4.38;;;2.08;;
7515;SDS011;3799;47.184;8.538;2023-03-12T10:40:15;3.30;;;1.50;;
7515;SDS011;3799;47.184;8.538;2023-03-12T10:42:45;2.85;;;1.30;;
7515;SDS011;3799;47.184;8.538;2023-03-12T10:45:32;1.90;;;0.98;;
7515;SDS011;3799;47.184;8.538;2023-03-12T10:48:01;3.10;;;1.10;;
7515;SDS011;3799;47.184;8.538;2023-03-12T10:50:35;2.95;;;1.17;;
7515;SDS011;3799;47.184;8.538;2023-03-12T10:53:20;2.60;;;1.20;;
7515;SDS011;3799;47.184;8.538;2023-03-12T10:56:01;2.83;;;1.27;;
7515;SDS011;3799;47.184;8.538;2023-03-12T10:58:51;2.35;;;1.10;;
7515;SDS011;3799;47.184;8.538;2023-03-12T11:01:34;2.15;;;1.00;;
7515;SDS011;3799;47.184;8.538;2023-03-12T11:04:14;2.58;;;1.30;;
7515;SDS011;3799;47.184;8.538;2023-03-12T11:07:45;2.53;;;1.10;;
7515;SDS011;3799;47.184;8.538;2023-03-12T11:09:51;2.42;;;1.23;;
7515;SDS011;3799;47.184;8.538;2023-03-12T11:12:40;3.53;;;1.10;;
7515;SDS011;3799;47.184;8.538;2023-03-12T11:23:43;2.10;;;1.10;;
7515;SDS011;3799;47.184;8.538;2023-03-12T11:27:04;2.95;;;0.90;;
7515;SDS011;3799;47.184;8.538;2023-03-12T11:29:47;2.55;;;1.08;;
7515;SDS011;3799;47.184;8.538;2023-03-12T11:32:38;2.00;;;0.70;;
7515;SDS011;3799;47.184;8.538;2023-03-12T11:35:20;2.20;;;0.70;;
7515;SDS011;3799;47.184;8.538;2023-03-12T11:38:38;3.95;;;0.77;;
7515;SDS011;3799;47.184;8.538;2023-03-12T11:41:21;2.03;;;0.65;;
7515;SDS011;3799;47.184;8.538;2023-03-12T11:47:12;1.05;;;0.32;;
7515;SDS011;3799;47.184;8.538;2023-03-12T12:04:12;0.93;;;0.20;;
7515;SDS011;3799;47.184;8.538;2023-03-12T12:07:11;5.20;;;0.43;;
7515;SDS011;3799;47.184;8.538;2023-03-12T12:38:34;0.82;;;0.20;;
7515;SDS011;3799;47.184;8.538;2023-03-12T12:41:24;4.13;;;0.30;;
7515;SDS011;3799;47.184;8.538;2023-03-12T12:44:09;2.03;;;0.20;;
7515;SDS011;3799;47.184;8.538;2023-03-12T12:46:57;0.77;;;0.25;;
7515;SDS011;3799;47.184;8.538;2023-03-12T12:49:50;1.55;;;0.13;;
7515;SDS011;3799;47.184;8.538;2023-03-12T12:52:32;1.88;;;0.38;;
7515;SDS011;3799;47.184;8.538;2023-03-12T12:55:05;0.60;;;0.38;;
7515;SDS011;3799;47.184;8.538;2023-03-12T13:00:57;0.50;;;0.13;;
7515;SDS011;3799;47.184;8.538;2023-03-12T13:03:53;2.15;;;0.20;;
7515;SDS011;3799;47.184;8.538;2023-03-12T13:09:45;3.35;;;0.40;;
7515;SDS011;3799;47.184;8.538;2023-03-12T13:27:29;0.93;;;0.13;;
7515;SDS011;3799;47.184;8.538;2023-03-12T13:33:04;1.25;;;0.08;;
7515;SDS011;3799;47.184;8.538;2023-03-12T13:38:59;0.10;;;0.00;;
7515;SDS011;3799;47.184;8.538;2023-03-12T13:41:59;0.13;;;0.00;;
7515;SDS011;3799;47.184;8.538;2023-03-12T13:44:48;1.13;;;0.10;;
7515;SDS011;3799;47.184;8.538;2023-03-12T13:47:29;1.73;;;0.20;;
7515;SDS011;3799;47.184;8.538;2023-03-12T13:50:11;1.98;;;0.13;;
7515;SDS011;3799;47.184;8.538;2023-03-12T13:53:03;2.53;;;0.20;;
7515;SDS011;3799;47.184;8.538;2023-03-12T13:55:43;2.25;;;0.10;;
7515;SDS011;3799;47.184;8.538;2023-03-12T13:58:46;0.30;;;0.08;;
7515;SDS011;3799;47.184;8.538;2023-03-12T14:01:45;1.60;;;0.30;;
7515;SDS011;3799;47.184;8.538;2023-03-12T14:04:21;1.88;;;0.10;;
7515;SDS011;3799;47.184;8.538;2023-03-12T14:07:41;0.63;;;0.05;;
7515;SDS011;3799;47.184;8.538;2023-03-12T14:10:53;0.88;;;0.10;;
7515;SDS011;3799;47.184;8.538;2023-03-12T14:13:50;0.75;;;0.10;;
7515;SDS011;3799;47.184;8.538;2023-03-12T14:16:53;1.95;;;0.45;;
7515;SDS011;3799;47.184;8.538;2023-03-12T14:19:34;2.05;;;0.30;;
7515;SDS011;3799;47.184;8.538;2023-03-12T14:22:05;0.75;;;0.15;;
7515;SDS011;3799;47.184;8.538;2023-03-12T14:24:52;1.90;;;0.32;;
7515;SDS011;3799;47.184;8.538;2023-03-12T14:27:28;2.70;;;0.15;;
7515;SDS011;3799;47.184;8.538;2023-03-12T14:30:03;1.45;;;0.10;;
7515;SDS011;3799;47.184;8.538;2023-03-12T14:32:37;1.10;;;0.10;;
7515;SDS011;3799;47.184;8.538;2023-03-12T14:35:51;0.60;;;0.05;;
7515;SDS011;3799;47.184;8.538;2023-03-12T14:38:46;2.05;;;0.10;;
7515;SDS011;3799;47.184;8.538;2023-03-12T14:41:32;0.45;;;0.10;;
7515;SDS011;3799;47.184;8.538;2023-03-12T14:44:35;1.27;;;0.20;;
7515;SDS011;3799;47.184;8.538;2023-03-12T14:47:25;0.85;;;0.17;;
7515;SDS011;3799;47.184;8.538;2023-03-12T14:49:57;1.58;;;0.35;;
7515;SDS011;3799;47.184;8.538;2023-03-12T14:52:28;0.93;;;0.10;;
7515;SDS011;3799;47.184;8.538;2023-03-12T14:55:12;2.50;;;0.10;;
7515;SDS011;3799;47.184;8.538;2023-03-12T15:01:31;1.67;;;0.05;;
7515;SDS011;3799;47.184;8.538;2023-03-12T15:04:22;1.23;;;0.30;;
7515;SDS011;3799;47.184;8.538;2023-03-12T15:07:00;1.05;;;0.00;;
7515;SDS011;3799;47.184;8.538;2023-03-12T15:09:55;1.85;;;0.43;;
7515;SDS011;3799;47.184;8.538;2023-03-12T15:12:38;0.73;;;0.13;;
7515;SDS011;3799;47.184;8.538;2023-03-12T15:15:51;1.63;;;0.30;;
7515;SDS011;3799;47.184;8.538;2023-03-12T15:18:27;1.40;;;0.10;;
7515;SDS011;3799;47.184;8.538;2023-03-12T15:21:19;0.77;;;0.20;;
7515;SDS011;3799;47.184;8.538;2023-03-12T15:23:48;0.85;;;0.10;;
7515;SDS011;3799;47.184;8.538;2023-03-12T15:26:41;1.05;;;0.15;;
7515;SDS011;3799;47.184;8.538;2023-03-12T15:31:47;1.50;;;0.10;;
7515;SDS011;3799;47.184;8.538;2023-03-12T15:34:29;0.65;;;0.10;;
7515;SDS011;3799;47.184;8.538;2023-03-12T15:37:22;0.63;;;0.10;;
7515;SDS011;3799;47.184;8.538;2023-03-12T15:43:26;1.73;;;0.35;;
7515;SDS011;3799;47.184;8.538;2023-03-12T15:46:27;2.22;;;0.10;;
7515;SDS011;3799;47.184;8.538;2023-03-12T15:48:58;1.48;;;0.30;;
7515;SDS011;3799;47.184;8.538;2023-03-12T15:51:41;1.75;;;0.35;;
7515;SDS011;3799;47.184;8.538;2023-03-12T15:57:52;1.02;;;0.10;;
7515;SDS011;3799;47.184;8.538;2023-03-12T16:00:42;1.48;;;0.20;;
7515;SDS011;3799;47.184;8.538;2023-03-12T16:03:19;2.03;;;1.17;;
7515;SDS011;3799;47.184;8.538;2023-03-12T16:05:48;2.72;;;0.22;;
7515;SDS011;3799;47.184;8.538;2023-03-12T16:08:18;0.80;;;0.10;;
7515;SDS011;3799;47.184;8.538;2023-03-12T16:11:41;2.17;;;0.57;;
7515;SDS011;3799;47.184;8.538;2023-03-12T16:14:13;0.13;;;0.00;;
7515;SDS011;3799;47.184;8.538;2023-03-12T16:16:59;1.17;;;0.10;;
7515;SDS011;3799;47.184;8.538;2023-03-12T16:19:53;1.63;;;0.20;;
7515;SDS011;3799;47.184;8.538;2023-03-12T16:23:02;1.42;;;0.20;;
7515;SDS011;3799;47.184;8.538;2023-03-12T16:25:42;2.50;;;0.40;;
7515;SDS011;3799;47.184;8.538;2023-03-12T16:28:27;1.40;;;0.40;;
7515;SDS011;3799;47.184;8.538;2023-03-12T16:30:55;1.33;;;0.50;;
7515;SDS011;3799;47.184;8.538;2023-03-12T16:33:33;1.13;;;0.30;;
7515;SDS011;3799;47.184;8.538;2023-03-12T16:36:01;1.65;;;0.30;;
7515;SDS011;3799;47.184;8.538;2023-03-12T16:38:45;0.90;;;0.35;;
7515;SDS011;3799;47.184;8.538;2023-03-12T16:41:27;1.48;;;0.63;;
7515;SDS011;3799;47.184;8.538;2023-03-12T16:44:07;1.40;;;0.40;;
7515;SDS011;3799;47.184;8.538;2023-03-12T16:46:42;3.15;;;0.65;;
7515;SDS011;3799;47.184;8.538;2023-03-12T16:49:16;1.83;;;0.30;;
7515;SDS011;3799;47.184;8.538;2023-03-12T16:51:45;1.52;;;0.30;;
7515;SDS011;3799;47.184;8.538;2023-03-12T16:54:13;1.65;;;0.55;;
7515;SDS011;3799;47.184;8.538;2023-03-12T16:56:41;1.05;;;0.40;;
7515;SDS011;3799;47.184;8.538;2023-03-12T17:01:56;2.67;;;0.80;;
7515;SDS011;3799;47.184;8.538;2023-03-12T17:04:26;2.50;;;1.08;;
7515;SDS011;3799;47.184;8.538;2023-03-12T17:06:53;1.95;;;0.60;;
7515;SDS011;3799;47.184;8.538;2023-03-12T17:09:20;2.55;;;0.60;;
7515;SDS011;3799;47.184;8.538;2023-03-12T17:11:49;3.20;;;0.50;;
7515;SDS011;3799;47.184;8.538;2023-03-12T17:14:18;1.67;;;0.52;;
7515;SDS011;3799;47.184;8.538;2023-03-12T17:16:51;2.60;;;0.45;;
7515;SDS011;3799;47.184;8.538;2023-03-12T17:21:49;1.48;;;0.63;;
7515;SDS011;3799;47.184;8.538;2023-03-12T17:24:21;1.38;;;0.40;;
7515;SDS011;3799;47.184;8.538;2023-03-12T17:26:53;2.03;;;0.90;;
7515;SDS011;3799;47.184;8.538;2023-03-12T17:29:24;2.47;;;0.55;;
7515;SDS011;3799;47.184;8.538;2023-03-12T17:31:59;2.03;;;0.60;;
7515;SDS011;3799;47.184;8.538;2023-03-12T17:36:56;3.90;;;0.73;;
7515;SDS011;3799;47.184;8.538;2023-03-12T17:44:36;2.83;;;0.52;;
7515;SDS011;3799;47.184;8.538;2023-03-12T17:47:21;1.92;;;0.60;;
7515;SDS011;3799;47.184;8.538;2023-03-12T17:49:56;1.58;;;0.55;;
7515;SDS011;3799;47.184;8.538;2023-03-12T17:52:26;1.90;;;0.40;;
7515;SDS011;3799;47.184;8.538;2023-03-12T17:54:54;2.10;;;0.70;;
7515;SDS011;3799;47.184;8.538;2023-03-12T17:57:28;3.28;;;0.80;;
7515;SDS011;3799;47.184;8.538;2023-03-12T17:59:56;3.35;;;0.93;;
7515;SDS011;3799;47.184;8.538;2023-03-12T18:02:38;2.22;;;0.90;;
7515;SDS011;3799;47.184;8.538;2023-03-12T18:05:10;1.85;;;0.85;;
7515;SDS011;3799;47.184;8.538;2023-03-12T18:07:41;1.33;;;0.32;;
7515;SDS011;3799;47.184;8.538;2023-03-12T18:10:24;1.70;;;0.60;;
7515;SDS011;3799;47.184;8.538;2023-03-12T18:13:29;2.17;;;0.52;;
7515;SDS011;3799;47.184;8.538;2023-03-12T18:16:03;1.77;;;0.60;;
7515;SDS011;3799;47.184;8.538;2023-03-12T18:18:39;2.50;;;0.40;;
7515;SDS011;3799;47.184;8.538;2023-03-12T18:21:07;3.47;;;1.00;;
7515;SDS011;3799;47.184;8.538;2023-03-12T18:23:34;1.85;;;0.60;;
7515;SDS011;3799;47.184;8.538;2023-03-12T18:26:06;3.05;;;0.70;;
7515;SDS011;3799;47.184;8.538;2023-03-12T18:28:34;1.35;;;0.50;;
7515;SDS011;3799;47.184;8.538;2023-03-12T18:33:37;1.80;;;0.40;;
7515;SDS011;3799;47.184;8.538;2023-03-12T18:36:25;1.90;;;0.40;;
7515;SDS011;3799;47.184;8.538;2023-03-12T18:39:00;2.55;;;0.55;;
7515;SDS011;3799;47.184;8.538;2023-03-12T18:41:53;2.05;;;0.40;;